Cap Aiguades — FMII — position and weather

sailwx.info

Track history (hours):
 
Tides and Currents Weather Stations Pressure Air Temp Water Temp Dewpoint Dewpoint Depression Visibility Wind Speed Wind Dir Waves Ship Positions

Cap Aiguades

Last reported at 2017-May-25 13:30 UTC. Time now 2017-May-25 14:17 UTC.
Position N 43°24' E 004°59'.

Length 89 m; draft 5 m.

Type: Ship. MMSI: 228237800.

Date/timePositionNaut miles runAvg speedWind from/ knotsBaromVisibWave heightAir tempDewpointWater temp
2017-May-25 13:30N 43°24' E 004°59'0 0.0
2017-May-25 13:00N 43°24' E 004°59'0 0.0
2017-May-25 12:27N 43°24' E 004°59'0 0.0
2017-May-25 11:54N 43°24' E 004°59'0 0.0
2017-May-25 11:30N 43°24' E 004°59'0 0.0
2017-May-25 10:57N 43°24' E 004°59'0 0.0
2017-May-25 10:30N 43°24' E 004°59'0 0.0
2017-May-25 10:00N 43°24' E 004°59'0 0.0
2017-May-25 09:30N 43°24' E 004°59'7 9.1
2017-May-25 08:47N 43°25' E 004°50'0 0.4
2017-May-25 08:02N 43°25' E 004°50'0 0.0
2017-May-25 05:53N 43°25' E 004°50'0 0.0
2017-May-24 23:32N 43°25' E 004°50'0 4.3
2017-May-24 23:30N 43°25' E 004°50'0 0.1
2017-May-24 18:59N 43°25' E 004°51'0 0.0
2017-May-24 18:26N 43°25' E 004°51'0 0.0
2017-May-24 16:32N 43°25' E 004°51'0 0.0
2017-May-24 16:20N 43°25' E 004°51'0 0.1
2017-May-24 15:58N 43°25' E 004°51'0 0.0
2017-May-24 15:22N 43°25' E 004°51'0 0.0
2017-May-24 14:55N 43°25' E 004°51'0 0.0
2017-May-24 14:10N 43°25' E 004°51'0 0.0
2017-May-24 13:28N 43°25' E 004°51'4 9.2
2017-May-24 13:00N 43°24' E 004°56'2 4.1
2017-May-24 12:29N 43°24' E 004°59'0 0.0
2017-May-24 11:59N 43°24' E 004°59'0 0.0
2017-May-24 11:20N 43°24' E 004°59'0 0.0
2017-May-24 10:59N 43°24' E 004°59'0 0.0
2017-May-24 10:29N 43°24' E 004°59'0 0.0
2017-May-24 09:59N 43°24' E 004°59'0 0.0
2017-May-24 09:29N 43°24' E 004°59'0 0.0
2017-May-24 08:59N 43°24' E 004°59'0 0.0
2017-May-24 08:26N 43°24' E 004°59'0 0.0
2017-May-24 07:56N 43°24' E 004°59'0 0.0
2017-May-24 07:29N 43°24' E 004°59'0 0.0
2017-May-24 06:59N 43°24' E 004°59'0 0.0
2017-May-24 06:29N 43°24' E 004°59'0 0.0
2017-May-24 05:56N 43°24' E 004°59'0 0.0
2017-May-24 05:26N 43°24' E 004°59'0 0.0
2017-May-24 04:59N 43°24' E 004°59'0 0.0
2017-May-24 04:26N 43°24' E 004°59'0 0.0
2017-May-24 03:56N 43°24' E 004°59'0 0.0
2017-May-24 03:29N 43°24' E 004°59'0 0.0
2017-May-24 02:59N 43°24' E 004°59'0 0.0
2017-May-24 02:29N 43°24' E 004°59'0 0.0
2017-May-24 01:59N 43°24' E 004°59'0 0.0
2017-May-24 01:26N 43°24' E 004°59'0 0.0
2017-May-24 00:59N 43°24' E 004°59'0 0.0
2017-May-24 00:29N 43°24' E 004°59'0 0.0
2017-May-23 23:59N 43°24' E 004°59'0 0.0
2017-May-23 23:26N 43°24' E 004°59'0 0.0
2017-May-23 22:59N 43°24' E 004°59'0 0.0
2017-May-23 22:29N 43°24' E 004°59'0 0.0
2017-May-23 21:56N 43°24' E 004°59'0 0.1
2017-May-23 21:26N 43°24' E 004°59'510.8
2017-May-23 20:56N 43°24' E 004°52'1 1.7
2017-May-23 20:26N 43°25' E 004°51'0 0.0
2017-May-23 19:59N 43°25' E 004°51'0 0.0
2017-May-23 19:26N 43°25' E 004°51'0 0.0
2017-May-23 18:56N 43°25' E 004°51'0 0.0
2017-May-23 18:26N 43°25' E 004°51'0 0.0
2017-May-23 17:59N 43°25' E 004°51'0 0.0
2017-May-23 17:29N 43°25' E 004°51'0 0.0
2017-May-23 15:53N 43°25' E 004°51'1 1.7
2017-May-23 15:31N 43°24' E 004°52'510.7
2017-May-23 15:00N 43°24' E 004°59'0 0.6
2017-May-23 14:29N 43°24' E 004°59'0 0.0
2017-May-23 13:29N 43°24' E 004°59'0 0.0
2017-May-23 12:59N 43°24' E 004°59'0 0.0
2017-May-23 12:29N 43°24' E 004°59'0 0.0
2017-May-23 11:59N 43°24' E 004°59'0 0.0
2017-May-23 11:29N 43°24' E 004°59'0 0.0
2017-May-23 10:59N 43°24' E 004°59'0 0.0
2017-May-23 10:29N 43°24' E 004°59'0 0.0
2017-May-23 09:59N 43°24' E 004°59'0 0.0
2017-May-23 09:29N 43°24' E 004°59'0 0.0
2017-May-23 08:59N 43°24' E 004°59'0 0.0
2017-May-23 08:29N 43°24' E 004°59'0 0.0
2017-May-23 07:53N 43°24' E 004°59'0 0.0
2017-May-23 07:29N 43°24' E 004°59'0 0.0
2017-May-23 06:59N 43°24' E 004°59'0 0.0
2017-May-23 06:29N 43°24' E 004°59'0 0.0
2017-May-23 05:14N 43°24' E 004°59'0 0.0
2017-May-23 04:56N 43°24' E 004°59'0 0.0
2017-May-23 04:29N 43°24' E 004°59'0 0.0
2017-May-23 04:00N 43°24' E 004°59'6 7.1
2017-May-23 03:12N 43°24' E 004°52'1 3.7
2017-May-23 02:58N 43°25' E 004°51'0 0.0
2017-May-23 02:30N 43°25' E 004°51'0 0.0
2017-May-23 01:59N 43°25' E 004°51'0 0.0
2017-May-23 01:25N 43°25' E 004°51'0 0.0
2017-May-23 00:59N 43°25' E 004°51'0 0.0
2017-May-23 00:30N 43°25' E 004°51'0 0.0
2017-May-22 23:57N 43°25' E 004°51'0 0.0
2017-May-22 23:30N 43°25' E 004°51'0 0.0
2017-May-22 23:00N 43°25' E 004°51'0 0.0
2017-May-22 22:30N 43°25' E 004°51'0 0.0
2017-May-22 21:47N 43°25' E 004°51'0 0.0
2017-May-22 21:26N 43°25' E 004°51'0 0.0
2017-May-22 20:45N 43°25' E 004°51'0 0.0
2017-May-22 20:29N 43°25' E 004°51'0 0.0
2017-May-22 19:15N 43°25' E 004°51'0 0.0
2017-May-22 18:59N 43°25' E 004°51'0 0.0
2017-May-22 18:29N 43°25' E 004°51'0 0.0
2017-May-22 18:00N 43°25' E 004°51'0 0.3
2017-May-22 17:30N 43°25' E 004°51'510.3
2017-May-22 16:59N 43°23' E 004°58'1 2.3
2017-May-22 16:30N 43°24' E 004°59'0 0.0
2017-May-22 16:00N 43°24' E 004°59'0 0.0
2017-May-22 15:30N 43°24' E 004°59'0 0.0
2017-May-22 14:59N 43°24' E 004°59'0 0.0
2017-May-22 14:00N 43°24' E 004°59'0 0.0
2017-May-22 13:30N 43°24' E 004°59'0 0.0
2017-May-22 13:00N 43°24' E 004°59'0 0.0
2017-May-22 12:30N 43°24' E 004°59'0 0.0
2017-May-22 12:00N 43°24' E 004°59'0 0.0
2017-May-22 11:30N 43°24' E 004°59'0 0.0
2017-May-22 11:00N 43°24' E 004°59'0 0.0
2017-May-22 10:30N 43°24' E 004°59'0 0.0
2017-May-22 10:00N 43°24' E 004°59'0 0.0
2017-May-22 09:30N 43°24' E 004°59'0 0.0
2017-May-22 09:00N 43°24' E 004°59'0 0.0
2017-May-22 08:30N 43°24' E 004°59'0 0.0
2017-May-22 08:00N 43°24' E 004°59'0 0.4
2017-May-22 07:30N 43°24' E 004°59'611.8
2017-May-22 06:59N 43°25' E 004°51'1 0.9
2017-May-22 06:17N 43°25' E 004°50'0 0.0
2017-May-22 05:43N 43°25' E 004°50'0 0.0
2017-May-22 05:17N 43°25' E 004°50'0 0.0
2017-May-22 04:54N 43°25' E 004°50'0 0.0
2017-May-22 04:11N 43°25' E 004°50'0 0.1
2017-May-22 03:55N 43°25' E 004°50'0 0.0
2017-May-22 02:33N 43°25' E 004°50'0 0.0
2017-May-22 02:06N 43°25' E 004°50'0 0.1
2017-May-22 02:00N 43°25' E 004°50'0 0.0
2017-May-22 01:30N 43°25' E 004°50'0 0.0
2017-May-22 01:00N 43°25' E 004°50'0 0.0
2017-May-21 23:46N 43°25' E 004°50'0 0.0
2017-May-21 23:16N 43°25' E 004°50'0 0.0
2017-May-21 22:50N 43°25' E 004°50'0 0.0
2017-May-21 22:28N 43°25' E 004°50'0 0.0
2017-May-21 22:00N 43°25' E 004°50'0 0.0
2017-May-21 20:59N 43°25' E 004°50'0 0.0
2017-May-21 19:52N 43°25' E 004°50'0 0.0
2017-May-21 19:15N 43°25' E 004°50'0 0.0
2017-May-21 18:53N 43°25' E 004°50'0 0.0
2017-May-21 18:27N 43°25' E 004°50'5 7.6
2017-May-21 17:49N 43°24' E 004°56'2 7.0
2017-May-21 17:30N 43°24' E 004°59'0 0.1
2017-May-21 17:00N 43°24' E 004°59'0 0.0
2017-May-21 16:30N 43°24' E 004°59'0 0.0
2017-May-21 16:00N 43°24' E 004°59'0 0.0
2017-May-21 15:30N 43°24' E 004°59'0 0.0
2017-May-21 15:00N 43°24' E 004°59'0 0.0
2017-May-21 14:00N 43°24' E 004°59'0 0.0
2017-May-21 13:30N 43°24' E 004°59'0 0.0
2017-May-21 13:00N 43°24' E 004°59'0 0.0
2017-May-21 12:31N 43°24' E 004°59'0 0.0
2017-May-21 12:00N 43°24' E 004°59'0 0.0
2017-May-21 11:30N 43°24' E 004°59'0 0.0
2017-May-21 11:00N 43°24' E 004°59'0 0.0
2017-May-21 10:30N 43°24' E 004°59'0 0.0
2017-May-21 10:00N 43°24' E 004°59'0 0.0
2017-May-21 09:30N 43°24' E 004°59'0 0.0
2017-May-21 09:00N 43°24' E 004°59'0 0.0
2017-May-21 08:30N 43°24' E 004°59'0 0.0
2017-May-21 08:00N 43°24' E 004°59'1 1.2
2017-May-21 07:30N 43°24' E 004°59'0 0.0
2017-May-21 07:00N 43°24' E 004°59'0 0.0
2017-May-21 06:30N 43°24' E 004°59'0 0.0
2017-May-21 06:00N 43°24' E 004°59'0 0.0
2017-May-21 05:30N 43°24' E 004°59'0 0.0
2017-May-21 05:00N 43°24' E 004°59'0 0.0
2017-May-21 04:30N 43°24' E 004°59'0 0.0
2017-May-21 03:59N 43°24' E 004°59'0 0.0
2017-May-21 03:30N 43°24' E 004°59'0 0.0
2017-May-21 03:00N 43°24' E 004°59'0 0.0
2017-May-21 02:30N 43°24' E 004°59'0 0.0
2017-May-21 02:00N 43°24' E 004°59'0 0.0
2017-May-21 01:30N 43°24' E 004°59'0 0.0
2017-May-21 01:00N 43°24' E 004°59'0 0.0
2017-May-21 00:30N 43°24' E 004°59'0 0.0
2017-May-21 00:00N 43°24' E 004°59'0 0.0
2017-May-20 23:30N 43°24' E 004°59'0 0.0
2017-May-20 23:00N 43°24' E 004°59'0 0.0
2017-May-20 22:30N 43°24' E 004°59'0 0.0
2017-May-20 22:00N 43°24' E 004°59'0 0.0
2017-May-20 21:30N 43°24' E 004°59'0 0.0
2017-May-20 21:00N 43°24' E 004°59'0 0.0
2017-May-20 20:30N 43°24' E 004°59'0 0.0
2017-May-20 20:00N 43°24' E 004°59'0 0.0
2017-May-20 19:30N 43°24' E 004°59'0 0.0
2017-May-20 19:00N 43°24' E 004°59'0 0.0
2017-May-20 18:30N 43°24' E 004°59'0 0.0
2017-May-20 18:00N 43°24' E 004°59'0 0.0
2017-May-20 17:30N 43°24' E 004°59'0 0.0
2017-May-20 17:00N 43°24' E 004°59'0 0.0
2017-May-20 16:30N 43°24' E 004°59'0 0.0
2017-May-20 16:00N 43°24' E 004°59'0 0.0
2017-May-20 15:30N 43°24' E 004°59'0 0.0
2017-May-20 15:00N 43°24' E 004°59'0 0.0
2017-May-20 14:30N 43°24' E 004°59'1 0.6
2017-May-20 13:30N 43°24' E 004°59'6 5.5
2017-May-20 12:25N 43°25' E 004°51'0 0.0
2017-May-20 12:00N 43°25' E 004°51'0 0.0
2017-May-20 11:29N 43°25' E 004°51'0 0.0
2017-May-20 10:39N 43°25' E 004°51'0 0.1
2017-May-20 10:30N 43°25' E 004°51'0 0.0
2017-May-20 09:51N 43°25' E 004°51'0 0.0
2017-May-20 09:30N 43°25' E 004°51'0 0.0
2017-May-20 08:51N 43°25' E 004°51'0 0.0
2017-May-20 08:16N 43°25' E 004°51'0 0.0
2017-May-20 07:47N 43°25' E 004°51'0 0.0
2017-May-20 06:56N 43°25' E 004°51'0 0.0
2017-May-20 06:21N 43°25' E 004°51'0 0.0
2017-May-20 06:00N 43°25' E 004°51'0 0.0
2017-May-20 05:12N 43°25' E 004°51'0 0.0
2017-May-20 04:56N 43°25' E 004°51'0 0.0
2017-May-20 04:22N 43°25' E 004°51'0 0.0
2017-May-20 04:00N 43°25' E 004°51'0 0.0
2017-May-20 03:23N 43°25' E 004°51'0 0.0
2017-May-20 02:23N 43°25' E 004°51'2 4.3
2017-May-20 01:54N 43°24' E 004°54'4 9.5
2017-May-20 01:30N 43°23' E 004°59'1 1.2
2017-May-20 01:00N 43°24' E 004°59'0 0.0
2017-May-20 00:30N 43°24' E 004°59'0 0.0
2017-May-20 00:00N 43°24' E 004°59'0 0.0
2017-May-19 23:30N 43°24' E 004°59'0 0.0
2017-May-19 23:00N 43°24' E 004°59'0 0.0
2017-May-19 22:30N 43°24' E 004°59'0 0.0
2017-May-19 22:00N 43°24' E 004°59'0 0.0
2017-May-19 21:30N 43°24' E 004°59'0 0.0
2017-May-19 21:00N 43°24' E 004°59'0 0.0
2017-May-19 20:30N 43°24' E 004°59'0 0.0
2017-May-19 20:00N 43°24' E 004°59'0 0.0
2017-May-19 19:30N 43°24' E 004°59'0 0.0
2017-May-19 19:00N 43°24' E 004°59'0 0.0
2017-May-19 18:30N 43°24' E 004°59'0 0.0
2017-May-19 18:00N 43°24' E 004°59'0 0.0
2017-May-19 17:30N 43°24' E 004°59'0 0.0
2017-May-19 17:00N 43°24' E 004°59'0 0.0
2017-May-19 16:30N 43°24' E 004°59'0 0.0
2017-May-19 16:00N 43°24' E 004°59'0 0.0
2017-May-19 15:30N 43°24' E 004°59'0 0.0
2017-May-19 15:00N 43°24' E 004°59'0 0.0
2017-May-19 14:00N 43°24' E 004°59'1 1.3
2017-May-19 13:30N 43°24' E 004°59'0 0.0
2017-May-19 13:00N 43°24' E 004°59'0 0.0
2017-May-19 12:30N 43°24' E 004°59'0 0.0
2017-May-19 12:00N 43°24' E 004°59'0 0.0
2017-May-19 11:30N 43°24' E 004°59'0 0.0
2017-May-19 11:00N 43°24' E 004°59'0 0.0
2017-May-19 10:30N 43°24' E 004°59'0 0.0
2017-May-19 10:00N 43°24' E 004°59'0 0.0
2017-May-19 09:30N 43°24' E 004°59'0 0.0
2017-May-19 09:00N 43°24' E 004°59'0 0.0
2017-May-19 08:30N 43°24' E 004°59'0 0.0
2017-May-19 07:59N 43°24' E 004°59'0 0.0
2017-May-19 07:30N 43°24' E 004°59'0 0.0
2017-May-19 07:00N 43°24' E 004°59'0 0.0
2017-May-19 06:30N 43°24' E 004°59'0 0.0
2017-May-19 06:00N 43°24' E 004°59'0 0.0
2017-May-19 05:30N 43°24' E 004°59'0 0.0
2017-May-19 05:00N 43°24' E 004°59'0 0.0
2017-May-19 04:29N 43°24' E 004°59'0 0.0
2017-May-19 04:00N 43°24' E 004°59'0 0.0
2017-May-19 03:30N 43°24' E 004°59'0 0.0
2017-May-19 03:00N 43°24' E 004°59'0 0.0
2017-May-19 02:30N 43°24' E 004°59'0 0.0
2017-May-19 02:00N 43°24' E 004°59'0 0.0
2017-May-19 01:30N 43°24' E 004°59'0 0.0
2017-May-19 01:00N 43°24' E 004°59'0 0.0
2017-May-19 00:30N 43°24' E 004°59'0 0.0
2017-May-19 00:00N 43°24' E 004°59'0 0.0
2017-May-18 23:30N 43°24' E 004°59'0 0.0
2017-May-18 23:00N 43°24' E 004°59'0 0.0
2017-May-18 22:30N 43°24' E 004°59'0 0.0
2017-May-18 22:00N 43°24' E 004°59'0 0.0
2017-May-18 21:30N 43°24' E 004°59'0 0.0
2017-May-18 21:00N 43°24' E 004°59'0 0.0
2017-May-18 20:30N 43°24' E 004°59'0 0.0
2017-May-18 20:00N 43°24' E 004°59'0 0.0
2017-May-18 19:30N 43°24' E 004°59'0 0.0
2017-May-18 19:00N 43°24' E 004°59'0 0.0
2017-May-18 18:30N 43°24' E 004°59'0 0.0
2017-May-18 18:00N 43°24' E 004°59'0 0.0
2017-May-18 17:30N 43°24' E 004°59'0 0.0
2017-May-18 17:00N 43°24' E 004°59'0 0.0
2017-May-18 16:30N 43°24' E 004°59'0 0.0
2017-May-18 16:00N 43°24' E 004°59'0 0.0
2017-May-18 15:30N 43°24' E 004°59'0 0.0
2017-May-18 15:00N 43°24' E 004°59'0 0.0
2017-May-18 14:30N 43°24' E 004°59'0 0.0
2017-May-18 13:30N 43°24' E 004°59'0 0.0
2017-May-18 13:00N 43°24' E 004°59'0 0.0
2017-May-18 12:30N 43°24' E 004°59'0 0.0
2017-May-18 12:00N 43°24' E 004°59'0 0.0
2017-May-18 11:30N 43°24' E 004°59'0 0.0
2017-May-18 11:00N 43°24' E 004°59'0 0.0
2017-May-18 10:30N 43°24' E 004°59'0 0.0
2017-May-18 10:00N 43°24' E 004°59'0 0.0
2017-May-18 09:30N 43°24' E 004°59'0 0.0
2017-May-18 09:00N 43°24' E 004°59'0 0.0
2017-May-18 08:30N 43°24' E 004°59'0 0.0
2017-May-18 08:00N 43°24' E 004°59'0 0.0
2017-May-18 07:30N 43°24' E 004°59'0 0.0
2017-May-18 07:00N 43°24' E 004°59'0 0.0
2017-May-18 06:30N 43°24' E 004°59'0 0.0
2017-May-18 06:00N 43°24' E 004°59'0 0.0
2017-May-18 05:30N 43°24' E 004°59'0 0.0
2017-May-18 05:00N 43°24' E 004°59'0 0.0
2017-May-18 04:30N 43°24' E 004°59'0 0.0
2017-May-18 04:00N 43°24' E 004°59'0 0.0
2017-May-18 03:30N 43°24' E 004°59'0 0.0
2017-May-18 03:00N 43°24' E 004°59'0 0.0
2017-May-18 02:30N 43°24' E 004°59'0 0.0
2017-May-18 02:00N 43°24' E 004°59'0 0.0
2017-May-18 01:30N 43°24' E 004°59'0 0.0
2017-May-18 01:00N 43°24' E 004°59'0 0.0
2017-May-18 00:30N 43°24' E 004°59'0 0.0
2017-May-18 00:00N 43°24' E 004°59'0 0.0
2017-May-17 23:30N 43°24' E 004°59'0 0.0
2017-May-17 23:00N 43°24' E 004°59'0 0.0
2017-May-17 22:30N 43°24' E 004°59'0 0.0
2017-May-17 22:00N 43°24' E 004°59'0 0.0
2017-May-17 21:30N 43°24' E 004°59'0 0.0
2017-May-17 21:00N 43°24' E 004°59'0 0.0
2017-May-17 20:30N 43°24' E 004°59'0 0.0
2017-May-17 20:00N 43°24' E 004°59'0 0.0
2017-May-17 19:30N 43°24' E 004°59'0 0.0
2017-May-17 19:00N 43°24' E 004°59'0 0.0
2017-May-17 18:30N 43°24' E 004°59'0 0.0
2017-May-17 18:00N 43°24' E 004°59'0 0.0
2017-May-17 17:30N 43°24' E 004°59'0 0.0
2017-May-17 17:00N 43°24' E 004°59'0 0.0
2017-May-17 16:30N 43°24' E 004°59'0 0.0
2017-May-17 16:00N 43°24' E 004°59'0 0.0
2017-May-17 15:30N 43°24' E 004°59'0 0.0
2017-May-17 15:00N 43°24' E 004°59'0 0.0
2017-May-17 14:00N 43°24' E 004°59'0 0.0
2017-May-17 13:30N 43°24' E 004°59'0 0.0
2017-May-17 13:00N 43°24' E 004°59'0 0.0
2017-May-17 12:30N 43°24' E 004°59'0 0.0
2017-May-17 12:00N 43°24' E 004°59'0 0.0
2017-May-17 11:30N 43°24' E 004°59'0 0.0
2017-May-17 11:00N 43°24' E 004°59'0 0.0
2017-May-17 10:30N 43°24' E 004°59'0 0.0
2017-May-17 10:00N 43°24' E 004°59'0 0.0
2017-May-17 09:30N 43°24' E 004°59'0 0.0
2017-May-17 09:00N 43°24' E 004°59'0 0.0
2017-May-17 08:30N 43°24' E 004°59'0 0.0
2017-May-17 08:00N 43°24' E 004°59'0 0.0
2017-May-17 07:30N 43°24' E 004°59'0 0.0
2017-May-17 07:00N 43°24' E 004°59'0 0.0
2017-May-17 06:30N 43°24' E 004°59'0 0.0
2017-May-17 06:00N 43°24' E 004°59'0 0.0
2017-May-17 05:30N 43°24' E 004°59'0 0.0
2017-May-17 05:00N 43°24' E 004°59'0 0.0
2017-May-17 04:30N 43°24' E 004°59'0 0.0
2017-May-17 04:00N 43°24' E 004°59'0 0.0
2017-May-17 03:30N 43°24' E 004°59'0 0.0
2017-May-17 03:00N 43°24' E 004°59'0 0.0
2017-May-17 02:30N 43°24' E 004°59'0 0.0
2017-May-17 01:59N 43°24' E 004°59'0 0.0
2017-May-17 01:30N 43°24' E 004°59'0 0.0
2017-May-17 01:00N 43°24' E 004°59'0 0.0
2017-May-17 00:30N 43°24' E 004°59'0 0.0
2017-May-17 00:00N 43°24' E 004°59'0 0.0
2017-May-16 23:30N 43°24' E 004°59'0 0.0
2017-May-16 23:00N 43°24' E 004°59'0 0.0
2017-May-16 22:30N 43°24' E 004°59'0 0.0
2017-May-16 22:00N 43°24' E 004°59'0 0.0
2017-May-16 21:30N 43°24' E 004°59'0 0.0
2017-May-16 21:00N 43°24' E 004°59'0 0.0
2017-May-16 20:30N 43°24' E 004°59'0 0.0
2017-May-16 20:00N 43°24' E 004°59'0 0.0
2017-May-16 19:30N 43°24' E 004°59'0 0.0
2017-May-16 19:00N 43°24' E 004°59'0 0.0
2017-May-16 18:30N 43°24' E 004°59'0 0.0
2017-May-16 18:00N 43°24' E 004°59'0 0.0
2017-May-16 17:29N 43°24' E 004°59'0 0.0
2017-May-16 17:00N 43°24' E 004°59'0 0.0
2017-May-16 16:30N 43°24' E 004°59'0 0.0
2017-May-16 16:00N 43°24' E 004°59'0 0.0
2017-May-16 15:30N 43°24' E 004°59'0 0.0
2017-May-16 15:00N 43°24' E 004°59'0 0.0
2017-May-16 14:30N 43°24' E 004°59'0 0.0
2017-May-16 13:30N 43°24' E 004°59'1 2.3
2017-May-16 13:00N 43°23' E 004°59'611.5
2017-May-16 12:30N 43°18' E 005°01'811.1
2017-May-16 11:49N 43°18' E 005°12'311.2
2017-May-16 11:30N 43°18' E 005°17'13 0.9
2017-May-15 21:08N 43°21' E 004°59'211.4
2017-May-15 20:59N 43°23' E 004°59'1 1.4
2017-May-15 20:30N 43°24' E 004°59'0 0.0
2017-May-15 20:00N 43°24' E 004°59'0 0.0
2017-May-15 19:30N 43°24' E 004°59'0 0.0
2017-May-15 19:00N 43°24' E 004°59'0 0.0
2017-May-15 18:30N 43°24' E 004°59'0 0.0
2017-May-15 18:00N 43°24' E 004°59'0 0.0
2017-May-15 17:30N 43°24' E 004°59'0 0.0
2017-May-15 17:00N 43°24' E 004°59'0 0.0
2017-May-15 16:30N 43°24' E 004°59'0 0.0
2017-May-15 16:00N 43°24' E 004°59'0 0.0
2017-May-15 15:30N 43°24' E 004°59'0 0.0
2017-May-15 15:00N 43°24' E 004°59'  
Track history (hours):
 
Tides and Currents Weather Stations Pressure Air Temp Water Temp Dewpoint Dewpoint Depression Visibility Wind Speed Wind Dir Waves Ship Positions

Cap Aiguades

Last reported at 2017-May-25 13:30 UTC. Time now 2017-May-25 14:17 UTC.
Position N 43°24' E 004°59'.

Length 89 m; draft 5 m.

Type: Ship. MMSI: 228237800.

Date/timePositionNaut miles runAvg speedWind from/ knotsBaromVisibWave heightAir tempDewpointWater temp
2017-May-25 13:30N 43°24' E 004°59'0 0.0
2017-May-25 13:00N 43°24' E 004°59'0 0.0
2017-May-25 12:27N 43°24' E 004°59'0 0.0
2017-May-25 11:54N 43°24' E 004°59'0 0.0
2017-May-25 11:30N 43°24' E 004°59'0 0.0
2017-May-25 10:57N 43°24' E 004°59'0 0.0
2017-May-25 10:30N 43°24' E 004°59'0 0.0
2017-May-25 10:00N 43°24' E 004°59'0 0.0
2017-May-25 09:30N 43°24' E 004°59'7 9.1
2017-May-25 08:47N 43°25' E 004°50'0 0.4
2017-May-25 08:02N 43°25' E 004°50'0 0.0
2017-May-25 05:53N 43°25' E 004°50'0 0.0
2017-May-24 23:32N 43°25' E 004°50'0 4.3
2017-May-24 23:30N 43°25' E 004°50'0 0.1
2017-May-24 18:59N 43°25' E 004°51'0 0.0
2017-May-24 18:26N 43°25' E 004°51'0 0.0
2017-May-24 16:32N 43°25' E 004°51'0 0.0
2017-May-24 16:20N 43°25' E 004°51'0 0.1
2017-May-24 15:58N 43°25' E 004°51'0 0.0
2017-May-24 15:22N 43°25' E 004°51'0 0.0
2017-May-24 14:55N 43°25' E 004°51'0 0.0
2017-May-24 14:10N 43°25' E 004°51'0 0.0
2017-May-24 13:28N 43°25' E 004°51'4 9.2
2017-May-24 13:00N 43°24' E 004°56'2 4.1
2017-May-24 12:29N 43°24' E 004°59'0 0.0
2017-May-24 11:59N 43°24' E 004°59'0 0.0
2017-May-24 11:20N 43°24' E 004°59'0 0.0
2017-May-24 10:59N 43°24' E 004°59'0 0.0
2017-May-24 10:29N 43°24' E 004°59'0 0.0
2017-May-24 09:59N 43°24' E 004°59'0 0.0
2017-May-24 09:29N 43°24' E 004°59'0 0.0
2017-May-24 08:59N 43°24' E 004°59'0 0.0
2017-May-24 08:26N 43°24' E 004°59'0 0.0
2017-May-24 07:56N 43°24' E 004°59'0 0.0
2017-May-24 07:29N 43°24' E 004°59'0 0.0
2017-May-24 06:59N 43°24' E 004°59'0 0.0
2017-May-24 06:29N 43°24' E 004°59'0 0.0
2017-May-24 05:56N 43°24' E 004°59'0 0.0
2017-May-24 05:26N 43°24' E 004°59'0 0.0
2017-May-24 04:59N 43°24' E 004°59'0 0.0
2017-May-24 04:26N 43°24' E 004°59'0 0.0
2017-May-24 03:56N 43°24' E 004°59'0 0.0
2017-May-24 03:29N 43°24' E 004°59'0 0.0
2017-May-24 02:59N 43°24' E 004°59'0 0.0
2017-May-24 02:29N 43°24' E 004°59'0 0.0
2017-May-24 01:59N 43°24' E 004°59'0 0.0
2017-May-24 01:26N 43°24' E 004°59'0 0.0
2017-May-24 00:59N 43°24' E 004°59'0 0.0
2017-May-24 00:29N 43°24' E 004°59'0 0.0
2017-May-23 23:59N 43°24' E 004°59'0 0.0
2017-May-23 23:26N 43°24' E 004°59'0 0.0
2017-May-23 22:59N 43°24' E 004°59'0 0.0
2017-May-23 22:29N 43°24' E 004°59'0 0.0
2017-May-23 21:56N 43°24' E 004°59'0 0.1
2017-May-23 21:26N 43°24' E 004°59'510.8
2017-May-23 20:56N 43°24' E 004°52'1 1.7
2017-May-23 20:26N 43°25' E 004°51'0 0.0
2017-May-23 19:59N 43°25' E 004°51'0 0.0
2017-May-23 19:26N 43°25' E 004°51'0 0.0
2017-May-23 18:56N 43°25' E 004°51'0 0.0
2017-May-23 18:26N 43°25' E 004°51'0 0.0
2017-May-23 17:59N 43°25' E 004°51'0 0.0
2017-May-23 17:29N 43°25' E 004°51'0 0.0
2017-May-23 15:53N 43°25' E 004°51'1 1.7
2017-May-23 15:31N 43°24' E 004°52'510.7
2017-May-23 15:00N 43°24' E 004°59'0 0.6
2017-May-23 14:29N 43°24' E 004°59'0 0.0
2017-May-23 13:29N 43°24' E 004°59'0 0.0
2017-May-23 12:59N 43°24' E 004°59'0 0.0
2017-May-23 12:29N 43°24' E 004°59'0 0.0
2017-May-23 11:59N 43°24' E 004°59'0 0.0
2017-May-23 11:29N 43°24' E 004°59'0 0.0
2017-May-23 10:59N 43°24' E 004°59'0 0.0
2017-May-23 10:29N 43°24' E 004°59'0 0.0
2017-May-23 09:59N 43°24' E 004°59'0 0.0
2017-May-23 09:29N 43°24' E 004°59'0 0.0
2017-May-23 08:59N 43°24' E 004°59'0 0.0
2017-May-23 08:29N 43°24' E 004°59'0 0.0
2017-May-23 07:53N 43°24' E 004°59'0 0.0
2017-May-23 07:29N 43°24' E 004°59'0 0.0
2017-May-23 06:59N 43°24' E 004°59'0 0.0
2017-May-23 06:29N 43°24' E 004°59'0 0.0
2017-May-23 05:14N 43°24' E 004°59'0 0.0
2017-May-23 04:56N 43°24' E 004°59'0 0.0
2017-May-23 04:29N 43°24' E 004°59'0 0.0
2017-May-23 04:00N 43°24' E 004°59'6 7.1
2017-May-23 03:12N 43°24' E 004°52'1 3.7
2017-May-23 02:58N 43°25' E 004°51'0 0.0
2017-May-23 02:30N 43°25' E 004°51'0 0.0
2017-May-23 01:59N 43°25' E 004°51'0 0.0
2017-May-23 01:25N 43°25' E 004°51'0 0.0
2017-May-23 00:59N 43°25' E 004°51'0 0.0
2017-May-23 00:30N 43°25' E 004°51'0 0.0
2017-May-22 23:57N 43°25' E 004°51'0 0.0
2017-May-22 23:30N 43°25' E 004°51'0 0.0
2017-May-22 23:00N 43°25' E 004°51'0 0.0
2017-May-22 22:30N 43°25' E 004°51'0 0.0
2017-May-22 21:47N 43°25' E 004°51'0 0.0
2017-May-22 21:26N 43°25' E 004°51'0 0.0
2017-May-22 20:45N 43°25' E 004°51'0 0.0
2017-May-22 20:29N 43°25' E 004°51'0 0.0
2017-May-22 19:15N 43°25' E 004°51'0 0.0
2017-May-22 18:59N 43°25' E 004°51'0 0.0
2017-May-22 18:29N 43°25' E 004°51'0 0.0
2017-May-22 18:00N 43°25' E 004°51'0 0.3
2017-May-22 17:30N 43°25' E 004°51'510.3
2017-May-22 16:59N 43°23' E 004°58'1 2.3
2017-May-22 16:30N 43°24' E 004°59'0 0.0
2017-May-22 16:00N 43°24' E 004°59'0 0.0
2017-May-22 15:30N 43°24' E 004°59'0 0.0
2017-May-22 14:59N 43°24' E 004°59'0 0.0
2017-May-22 14:00N 43°24' E 004°59'0 0.0
2017-May-22 13:30N 43°24' E 004°59'0 0.0
2017-May-22 13:00N 43°24' E 004°59'0 0.0
2017-May-22 12:30N 43°24' E 004°59'0 0.0
2017-May-22 12:00N 43°24' E 004°59'0 0.0
2017-May-22 11:30N 43°24' E 004°59'0 0.0
2017-May-22 11:00N 43°24' E 004°59'0 0.0
2017-May-22 10:30N 43°24' E 004°59'0 0.0
2017-May-22 10:00N 43°24' E 004°59'0 0.0
2017-May-22 09:30N 43°24' E 004°59'0 0.0
2017-May-22 09:00N 43°24' E 004°59'0 0.0
2017-May-22 08:30N 43°24' E 004°59'0 0.0
2017-May-22 08:00N 43°24' E 004°59'0 0.4
2017-May-22 07:30N 43°24' E 004°59'611.8
2017-May-22 06:59N 43°25' E 004°51'1 0.9
2017-May-22 06:17N 43°25' E 004°50'0 0.0
2017-May-22 05:43N 43°25' E 004°50'0 0.0
2017-May-22 05:17N 43°25' E 004°50'0 0.0
2017-May-22 04:54N 43°25' E 004°50'0 0.0
2017-May-22 04:11N 43°25' E 004°50'0 0.1
2017-May-22 03:55N 43°25' E 004°50'0 0.0
2017-May-22 02:33N 43°25' E 004°50'0 0.0
2017-May-22 02:06N 43°25' E 004°50'0 0.1
2017-May-22 02:00N 43°25' E 004°50'0 0.0
2017-May-22 01:30N 43°25' E 004°50'0 0.0
2017-May-22 01:00N 43°25' E 004°50'0 0.0
2017-May-21 23:46N 43°25' E 004°50'0 0.0
2017-May-21 23:16N 43°25' E 004°50'0 0.0
2017-May-21 22:50N 43°25' E 004°50'0 0.0
2017-May-21 22:28N 43°25' E 004°50'0 0.0
2017-May-21 22:00N 43°25' E 004°50'0 0.0
2017-May-21 20:59N 43°25' E 004°50'0 0.0
2017-May-21 19:52N 43°25' E 004°50'0 0.0
2017-May-21 19:15N 43°25' E 004°50'0 0.0
2017-May-21 18:53N 43°25' E 004°50'0 0.0
2017-May-21 18:27N 43°25' E 004°50'5 7.6
2017-May-21 17:49N 43°24' E 004°56'2 7.0
2017-May-21 17:30N 43°24' E 004°59'0 0.1
2017-May-21 17:00N 43°24' E 004°59'0 0.0
2017-May-21 16:30N 43°24' E 004°59'0 0.0
2017-May-21 16:00N 43°24' E 004°59'0 0.0
2017-May-21 15:30N 43°24' E 004°59'0 0.0
2017-May-21 15:00N 43°24' E 004°59'0 0.0
2017-May-21 14:00N 43°24' E 004°59'0 0.0
2017-May-21 13:30N 43°24' E 004°59'0 0.0
2017-May-21 13:00N 43°24' E 004°59'0 0.0
2017-May-21 12:31N 43°24' E 004°59'0 0.0
2017-May-21 12:00N 43°24' E 004°59'0 0.0
2017-May-21 11:30N 43°24' E 004°59'0 0.0
2017-May-21 11:00N 43°24' E 004°59'0 0.0
2017-May-21 10:30N 43°24' E 004°59'0 0.0
2017-May-21 10:00N 43°24' E 004°59'0 0.0
2017-May-21 09:30N 43°24' E 004°59'0 0.0
2017-May-21 09:00N 43°24' E 004°59'0 0.0
2017-May-21 08:30N 43°24' E 004°59'0 0.0
2017-May-21 08:00N 43°24' E 004°59'1 1.2
2017-May-21 07:30N 43°24' E 004°59'0 0.0
2017-May-21 07:00N 43°24' E 004°59'0 0.0
2017-May-21 06:30N 43°24' E 004°59'0 0.0
2017-May-21 06:00N 43°24' E 004°59'0 0.0
2017-May-21 05:30N 43°24' E 004°59'0 0.0
2017-May-21 05:00N 43°24' E 004°59'0 0.0
2017-May-21 04:30N 43°24' E 004°59'0 0.0
2017-May-21 03:59N 43°24' E 004°59'0 0.0
2017-May-21 03:30N 43°24' E 004°59'0 0.0
2017-May-21 03:00N 43°24' E 004°59'0 0.0
2017-May-21 02:30N 43°24' E 004°59'0 0.0
2017-May-21 02:00N 43°24' E 004°59'0 0.0
2017-May-21 01:30N 43°24' E 004°59'0 0.0
2017-May-21 01:00N 43°24' E 004°59'0 0.0
2017-May-21 00:30N 43°24' E 004°59'0 0.0
2017-May-21 00:00N 43°24' E 004°59'0 0.0
2017-May-20 23:30N 43°24' E 004°59'0 0.0
2017-May-20 23:00N 43°24' E 004°59'0 0.0
2017-May-20 22:30N 43°24' E 004°59'0 0.0
2017-May-20 22:00N 43°24' E 004°59'0 0.0
2017-May-20 21:30N 43°24' E 004°59'0 0.0
2017-May-20 21:00N 43°24' E 004°59'0 0.0
2017-May-20 20:30N 43°24' E 004°59'0 0.0
2017-May-20 20:00N 43°24' E 004°59'0 0.0
2017-May-20 19:30N 43°24' E 004°59'0 0.0
2017-May-20 19:00N 43°24' E 004°59'0 0.0
2017-May-20 18:30N 43°24' E 004°59'0 0.0
2017-May-20 18:00N 43°24' E 004°59'0 0.0
2017-May-20 17:30N 43°24' E 004°59'0 0.0
2017-May-20 17:00N 43°24' E 004°59'0 0.0
2017-May-20 16:30N 43°24' E 004°59'0 0.0
2017-May-20 16:00N 43°24' E 004°59'0 0.0
2017-May-20 15:30N 43°24' E 004°59'0 0.0
2017-May-20 15:00N 43°24' E 004°59'0 0.0
2017-May-20 14:30N 43°24' E 004°59'1 0.6
2017-May-20 13:30N 43°24' E 004°59'6 5.5
2017-May-20 12:25N 43°25' E 004°51'0 0.0
2017-May-20 12:00N 43°25' E 004°51'0 0.0
2017-May-20 11:29N 43°25' E 004°51'0 0.0
2017-May-20 10:39N 43°25' E 004°51'0 0.1
2017-May-20 10:30N 43°25' E 004°51'0 0.0
2017-May-20 09:51N 43°25' E 004°51'0 0.0
2017-May-20 09:30N 43°25' E 004°51'0 0.0
2017-May-20 08:51N 43°25' E 004°51'0 0.0
2017-May-20 08:16N 43°25' E 004°51'0 0.0
2017-May-20 07:47N 43°25' E 004°51'0 0.0
2017-May-20 06:56N 43°25' E 004°51'0 0.0
2017-May-20 06:21N 43°25' E 004°51'0 0.0
2017-May-20 06:00N 43°25' E 004°51'0 0.0
2017-May-20 05:12N 43°25' E 004°51'0 0.0
2017-May-20 04:56N 43°25' E 004°51'0 0.0
2017-May-20 04:22N 43°25' E 004°51'0 0.0
2017-May-20 04:00N 43°25' E 004°51'0 0.0
2017-May-20 03:23N 43°25' E 004°51'0 0.0
2017-May-20 02:23N 43°25' E 004°51'2 4.3
2017-May-20 01:54N 43°24' E 004°54'4 9.5
2017-May-20 01:30N 43°23' E 004°59'1 1.2
2017-May-20 01:00N 43°24' E 004°59'0 0.0
2017-May-20 00:30N 43°24' E 004°59'0 0.0
2017-May-20 00:00N 43°24' E 004°59'0 0.0
2017-May-19 23:30N 43°24' E 004°59'0 0.0
2017-May-19 23:00N 43°24' E 004°59'0 0.0
2017-May-19 22:30N 43°24' E 004°59'0 0.0
2017-May-19 22:00N 43°24' E 004°59'0 0.0
2017-May-19 21:30N 43°24' E 004°59'0 0.0
2017-May-19 21:00N 43°24' E 004°59'0 0.0
2017-May-19 20:30N 43°24' E 004°59'0 0.0
2017-May-19 20:00N 43°24' E 004°59'0 0.0
2017-May-19 19:30N 43°24' E 004°59'0 0.0
2017-May-19 19:00N 43°24' E 004°59'0 0.0
2017-May-19 18:30N 43°24' E 004°59'0 0.0
2017-May-19 18:00N 43°24' E 004°59'0 0.0
2017-May-19 17:30N 43°24' E 004°59'0 0.0
2017-May-19 17:00N 43°24' E 004°59'0 0.0
2017-May-19 16:30N 43°24' E 004°59'0 0.0
2017-May-19 16:00N 43°24' E 004°59'0 0.0
2017-May-19 15:30N 43°24' E 004°59'0 0.0
2017-May-19 15:00N 43°24' E 004°59'0 0.0
2017-May-19 14:00N 43°24' E 004°59'1 1.3
2017-May-19 13:30N 43°24' E 004°59'0 0.0
2017-May-19 13:00N 43°24' E 004°59'0 0.0
2017-May-19 12:30N 43°24' E 004°59'0 0.0
2017-May-19 12:00N 43°24' E 004°59'0 0.0
2017-May-19 11:30N 43°24' E 004°59'0 0.0
2017-May-19 11:00N 43°24' E 004°59'0 0.0
2017-May-19 10:30N 43°24' E 004°59'0 0.0
2017-May-19 10:00N 43°24' E 004°59'0 0.0
2017-May-19 09:30N 43°24' E 004°59'0 0.0
2017-May-19 09:00N 43°24' E 004°59'0 0.0
2017-May-19 08:30N 43°24' E 004°59'0 0.0
2017-May-19 07:59N 43°24' E 004°59'0 0.0
2017-May-19 07:30N 43°24' E 004°59'0 0.0
2017-May-19 07:00N 43°24' E 004°59'0 0.0
2017-May-19 06:30N 43°24' E 004°59'0 0.0
2017-May-19 06:00N 43°24' E 004°59'0 0.0
2017-May-19 05:30N 43°24' E 004°59'0 0.0
2017-May-19 05:00N 43°24' E 004°59'0 0.0
2017-May-19 04:29N 43°24' E 004°59'0 0.0
2017-May-19 04:00N 43°24' E 004°59'0 0.0
2017-May-19 03:30N 43°24' E 004°59'0 0.0
2017-May-19 03:00N 43°24' E 004°59'0 0.0
2017-May-19 02:30N 43°24' E 004°59'0 0.0
2017-May-19 02:00N 43°24' E 004°59'0 0.0
2017-May-19 01:30N 43°24' E 004°59'0 0.0
2017-May-19 01:00N 43°24' E 004°59'0 0.0
2017-May-19 00:30N 43°24' E 004°59'0 0.0
2017-May-19 00:00N 43°24' E 004°59'0 0.0
2017-May-18 23:30N 43°24' E 004°59'0 0.0
2017-May-18 23:00N 43°24' E 004°59'0 0.0
2017-May-18 22:30N 43°24' E 004°59'0 0.0
2017-May-18 22:00N 43°24' E 004°59'0 0.0
2017-May-18 21:30N 43°24' E 004°59'0 0.0
2017-May-18 21:00N 43°24' E 004°59'0 0.0
2017-May-18 20:30N 43°24' E 004°59'0 0.0
2017-May-18 20:00N 43°24' E 004°59'0 0.0
2017-May-18 19:30N 43°24' E 004°59'0 0.0
2017-May-18 19:00N 43°24' E 004°59'0 0.0
2017-May-18 18:30N 43°24' E 004°59'0 0.0
2017-May-18 18:00N 43°24' E 004°59'0 0.0
2017-May-18 17:30N 43°24' E 004°59'0 0.0
2017-May-18 17:00N 43°24' E 004°59'0 0.0
2017-May-18 16:30N 43°24' E 004°59'0 0.0
2017-May-18 16:00N 43°24' E 004°59'0 0.0
2017-May-18 15:30N 43°24' E 004°59'0 0.0
2017-May-18 15:00N 43°24' E 004°59'0 0.0
2017-May-18 14:30N 43°24' E 004°59'0 0.0
2017-May-18 13:30N 43°24' E 004°59'0 0.0
2017-May-18 13:00N 43°24' E 004°59'0 0.0
2017-May-18 12:30N 43°24' E 004°59'0 0.0
2017-May-18 12:00N 43°24' E 004°59'0 0.0
2017-May-18 11:30N 43°24' E 004°59'0 0.0
2017-May-18 11:00N 43°24' E 004°59'0 0.0
2017-May-18 10:30N 43°24' E 004°59'0 0.0
2017-May-18 10:00N 43°24' E 004°59'0 0.0
2017-May-18 09:30N 43°24' E 004°59'0 0.0
2017-May-18 09:00N 43°24' E 004°59'0 0.0
2017-May-18 08:30N 43°24' E 004°59'0 0.0
2017-May-18 08:00N 43°24' E 004°59'0 0.0
2017-May-18 07:30N 43°24' E 004°59'0 0.0
2017-May-18 07:00N 43°24' E 004°59'0 0.0
2017-May-18 06:30N 43°24' E 004°59'0 0.0
2017-May-18 06:00N 43°24' E 004°59'0 0.0
2017-May-18 05:30N 43°24' E 004°59'0 0.0
2017-May-18 05:00N 43°24' E 004°59'0 0.0
2017-May-18 04:30N 43°24' E 004°59'0 0.0
2017-May-18 04:00N 43°24' E 004°59'0 0.0
2017-May-18 03:30N 43°24' E 004°59'0 0.0
2017-May-18 03:00N 43°24' E 004°59'0 0.0
2017-May-18 02:30N 43°24' E 004°59'0 0.0
2017-May-18 02:00N 43°24' E 004°59'0 0.0
2017-May-18 01:30N 43°24' E 004°59'0 0.0
2017-May-18 01:00N 43°24' E 004°59'0 0.0
2017-May-18 00:30N 43°24' E 004°59'0 0.0
2017-May-18 00:00N 43°24' E 004°59'0 0.0
2017-May-17 23:30N 43°24' E 004°59'0 0.0
2017-May-17 23:00N 43°24' E 004°59'0 0.0
2017-May-17 22:30N 43°24' E 004°59'0 0.0
2017-May-17 22:00N 43°24' E 004°59'0 0.0
2017-May-17 21:30N 43°24' E 004°59'0 0.0
2017-May-17 21:00N 43°24' E 004°59'0 0.0
2017-May-17 20:30N 43°24' E 004°59'0 0.0
2017-May-17 20:00N 43°24' E 004°59'0 0.0
2017-May-17 19:30N 43°24' E 004°59'0 0.0
2017-May-17 19:00N 43°24' E 004°59'0 0.0
2017-May-17 18:30N 43°24' E 004°59'0 0.0
2017-May-17 18:00N 43°24' E 004°59'0 0.0
2017-May-17 17:30N 43°24' E 004°59'0 0.0
2017-May-17 17:00N 43°24' E 004°59'0 0.0
2017-May-17 16:30N 43°24' E 004°59'0 0.0
2017-May-17 16:00N 43°24' E 004°59'0 0.0
2017-May-17 15:30N 43°24' E 004°59'0 0.0
2017-May-17 15:00N 43°24' E 004°59'0 0.0
2017-May-17 14:00N 43°24' E 004°59'0 0.0
2017-May-17 13:30N 43°24' E 004°59'0 0.0
2017-May-17 13:00N 43°24' E 004°59'0 0.0
2017-May-17 12:30N 43°24' E 004°59'0 0.0
2017-May-17 12:00N 43°24' E 004°59'0 0.0
2017-May-17 11:30N 43°24' E 004°59'0 0.0
2017-May-17 11:00N 43°24' E 004°59'0 0.0
2017-May-17 10:30N 43°24' E 004°59'0 0.0
2017-May-17 10:00N 43°24' E 004°59'0 0.0
2017-May-17 09:30N 43°24' E 004°59'0 0.0
2017-May-17 09:00N 43°24' E 004°59'0 0.0
2017-May-17 08:30N 43°24' E 004°59'0 0.0
2017-May-17 08:00N 43°24' E 004°59'0 0.0
2017-May-17 07:30N 43°24' E 004°59'0 0.0
2017-May-17 07:00N 43°24' E 004°59'0 0.0
2017-May-17 06:30N 43°24' E 004°59'0 0.0
2017-May-17 06:00N 43°24' E 004°59'0 0.0
2017-May-17 05:30N 43°24' E 004°59'0 0.0
2017-May-17 05:00N 43°24' E 004°59'0 0.0
2017-May-17 04:30N 43°24' E 004°59'0 0.0
2017-May-17 04:00N 43°24' E 004°59'0 0.0
2017-May-17 03:30N 43°24' E 004°59'0 0.0
2017-May-17 03:00N 43°24' E 004°59'0 0.0
2017-May-17 02:30N 43°24' E 004°59'0 0.0
2017-May-17 01:59N 43°24' E 004°59'0 0.0
2017-May-17 01:30N 43°24' E 004°59'0 0.0
2017-May-17 01:00N 43°24' E 004°59'0 0.0
2017-May-17 00:30N 43°24' E 004°59'0 0.0
2017-May-17 00:00N 43°24' E 004°59'0 0.0
2017-May-16 23:30N 43°24' E 004°59'0 0.0
2017-May-16 23:00N 43°24' E 004°59'0 0.0
2017-May-16 22:30N 43°24' E 004°59'0 0.0
2017-May-16 22:00N 43°24' E 004°59'0 0.0
2017-May-16 21:30N 43°24' E 004°59'0 0.0
2017-May-16 21:00N 43°24' E 004°59'0 0.0
2017-May-16 20:30N 43°24' E 004°59'0 0.0
2017-May-16 20:00N 43°24' E 004°59'0 0.0
2017-May-16 19:30N 43°24' E 004°59'0 0.0
2017-May-16 19:00N 43°24' E 004°59'0 0.0
2017-May-16 18:30N 43°24' E 004°59'0 0.0
2017-May-16 18:00N 43°24' E 004°59'0 0.0
2017-May-16 17:29N 43°24' E 004°59'0 0.0
2017-May-16 17:00N 43°24' E 004°59'0 0.0
2017-May-16 16:30N 43°24' E 004°59'0 0.0
2017-May-16 16:00N 43°24' E 004°59'0 0.0
2017-May-16 15:30N 43°24' E 004°59'0 0.0
2017-May-16 15:00N 43°24' E 004°59'0 0.0
2017-May-16 14:30N 43°24' E 004°59'0 0.0
2017-May-16 13:30N 43°24' E 004°59'1 2.3
2017-May-16 13:00N 43°23' E 004°59'611.5
2017-May-16 12:30N 43°18' E 005°01'811.1
2017-May-16 11:49N 43°18' E 005°12'311.2
2017-May-16 11:30N 43°18' E 005°17'13 0.9
2017-May-15 21:08N 43°21' E 004°59'211.4
2017-May-15 20:59N 43°23' E 004°59'1 1.4
2017-May-15 20:30N 43°24' E 004°59'0 0.0
2017-May-15 20:00N 43°24' E 004°59'0 0.0
2017-May-15 19:30N 43°24' E 004°59'0 0.0
2017-May-15 19:00N 43°24' E 004°59'0 0.0
2017-May-15 18:30N 43°24' E 004°59'0 0.0
2017-May-15 18:00N 43°24' E 004°59'0 0.0
2017-May-15 17:30N 43°24' E 004°59'0 0.0
2017-May-15 17:00N 43°24' E 004°59'0 0.0
2017-May-15 16:30N 43°24' E 004°59'0 0.0
2017-May-15 16:00N 43°24' E 004°59'0 0.0
2017-May-15 15:30N 43°24' E 004°59'0 0.0
2017-May-15 15:00N 43°24' E 004°59'  

Dump ship's entire track history